sensor_id;sensor_type;location;lat;lon;timestamp;P1;durP1;ratioP1;P2;durP2;ratioP2
71383;SDS011;67558;52.166;5.004;2023-02-18T00:01:39;29.25;;;11.90;;
71383;SDS011;67558;52.166;5.004;2023-02-18T00:04:04;24.98;;;9.80;;
71383;SDS011;67558;52.166;5.004;2023-02-18T00:06:33;20.60;;;10.63;;
71383;SDS011;67558;52.166;5.004;2023-02-18T00:09:00;25.00;;;10.57;;
71383;SDS011;67558;52.166;5.004;2023-02-18T00:11:26;24.90;;;11.35;;
71383;SDS011;67558;52.166;5.004;2023-02-18T00:13:53;28.33;;;9.65;;
71383;SDS011;67558;52.166;5.004;2023-02-18T00:16:21;28.55;;;13.57;;
71383;SDS011;67558;52.166;5.004;2023-02-18T00:18:47;22.48;;;11.48;;
71383;SDS011;67558;52.166;5.004;2023-02-18T00:21:13;31.02;;;11.85;;
71383;SDS011;67558;52.166;5.004;2023-02-18T00:23:39;30.63;;;13.52;;
71383;SDS011;67558;52.166;5.004;2023-02-18T00:26:05;36.63;;;13.48;;
71383;SDS011;67558;52.166;5.004;2023-02-18T00:28:41;35.03;;;13.65;;
71383;SDS011;67558;52.166;5.004;2023-02-18T00:31:19;31.08;;;12.80;;
71383;SDS011;67558;52.166;5.004;2023-02-18T00:33:46;40.88;;;16.70;;
71383;SDS011;67558;52.166;5.004;2023-02-18T00:36:13;37.72;;;15.40;;
71383;SDS011;67558;52.166;5.004;2023-02-18T00:38:46;35.60;;;12.15;;
71383;SDS011;67558;52.166;5.004;2023-02-18T00:41:17;37.13;;;13.77;;
71383;SDS011;67558;52.166;5.004;2023-02-18T00:43:43;34.97;;;14.05;;
71383;SDS011;67558;52.166;5.004;2023-02-18T00:46:09;33.08;;;12.27;;
71383;SDS011;67558;52.166;5.004;2023-02-18T00:48:35;38.33;;;14.98;;
71383;SDS011;67558;52.166;5.004;2023-02-18T00:51:01;30.23;;;12.82;;
71383;SDS011;67558;52.166;5.004;2023-02-18T00:53:27;36.13;;;14.27;;
71383;SDS011;67558;52.166;5.004;2023-02-18T00:55:53;33.72;;;13.55;;
71383;SDS011;67558;52.166;5.004;2023-02-18T00:58:19;36.00;;;13.73;;
71383;SDS011;67558;52.166;5.004;2023-02-18T01:00:45;36.63;;;12.88;;
71383;SDS011;67558;52.166;5.004;2023-02-18T01:03:10;35.35;;;13.43;;
71383;SDS011;67558;52.166;5.004;2023-02-18T01:05:37;34.10;;;15.18;;
71383;SDS011;67558;52.166;5.004;2023-02-18T01:08:02;31.30;;;11.57;;
71383;SDS011;67558;52.166;5.004;2023-02-18T01:10:29;31.00;;;12.27;;
71383;SDS011;67558;52.166;5.004;2023-02-18T01:12:54;34.17;;;13.50;;
71383;SDS011;67558;52.166;5.004;2023-02-18T01:15:20;37.00;;;11.60;;
71383;SDS011;67558;52.166;5.004;2023-02-18T01:17:45;33.70;;;12.93;;
71383;SDS011;67558;52.166;5.004;2023-02-18T01:20:12;31.65;;;11.88;;
71383;SDS011;67558;52.166;5.004;2023-02-18T01:22:38;34.00;;;13.00;;
71383;SDS011;67558;52.166;5.004;2023-02-18T01:25:04;34.65;;;15.27;;
71383;SDS011;67558;52.166;5.004;2023-02-18T01:27:30;36.45;;;14.35;;
71383;SDS011;67558;52.166;5.004;2023-02-18T01:29:55;36.13;;;13.40;;
71383;SDS011;67558;52.166;5.004;2023-02-18T01:32:21;33.45;;;13.48;;
71383;SDS011;67558;52.166;5.004;2023-02-18T01:34:46;31.58;;;13.30;;
71383;SDS011;67558;52.166;5.004;2023-02-18T01:37:12;28.95;;;13.10;;
71383;SDS011;67558;52.166;5.004;2023-02-18T01:39:37;36.15;;;12.52;;
71383;SDS011;67558;52.166;5.004;2023-02-18T01:42:03;35.20;;;12.10;;
71383;SDS011;67558;52.166;5.004;2023-02-18T01:44:29;34.85;;;12.93;;
71383;SDS011;67558;52.166;5.004;2023-02-18T01:46:57;32.55;;;12.45;;
71383;SDS011;67558;52.166;5.004;2023-02-18T01:49:30;38.63;;;15.73;;
71383;SDS011;67558;52.166;5.004;2023-02-18T01:51:59;37.15;;;13.68;;
71383;SDS011;67558;52.166;5.004;2023-02-18T01:54:36;34.58;;;13.82;;
71383;SDS011;67558;52.166;5.004;2023-02-18T01:57:06;39.20;;;14.93;;
71383;SDS011;67558;52.166;5.004;2023-02-18T01:59:42;31.50;;;12.88;;
71383;SDS011;67558;52.166;5.004;2023-02-18T02:02:13;33.42;;;13.02;;
71383;SDS011;67558;52.166;5.004;2023-02-18T02:04:41;33.75;;;13.25;;
71383;SDS011;67558;52.166;5.004;2023-02-18T02:07:08;34.63;;;12.88;;
71383;SDS011;67558;52.166;5.004;2023-02-18T02:09:34;36.25;;;14.55;;
71383;SDS011;67558;52.166;5.004;2023-02-18T02:14:59;33.42;;;13.82;;
71383;SDS011;67558;52.166;5.004;2023-02-18T02:17:31;36.25;;;13.00;;
71383;SDS011;67558;52.166;5.004;2023-02-18T02:28:45;35.22;;;12.90;;
71383;SDS011;67558;52.166;5.004;2023-02-18T02:36:33;39.03;;;14.25;;
71383;SDS011;67558;52.166;5.004;2023-02-18T02:39:07;46.83;;;16.33;;
71383;SDS011;67558;52.166;5.004;2023-02-18T02:44:18;34.58;;;12.98;;
71383;SDS011;67558;52.166;5.004;2023-02-18T02:46:46;23.70;;;9.60;;
71383;SDS011;67558;52.166;5.004;2023-02-18T02:49:23;37.17;;;12.95;;
71383;SDS011;67558;52.166;5.004;2023-02-18T02:52:03;34.35;;;12.25;;
71383;SDS011;67558;52.166;5.004;2023-02-18T02:54:35;35.88;;;14.02;;
71383;SDS011;67558;52.166;5.004;2023-02-18T02:57:04;37.25;;;13.77;;
71383;SDS011;67558;52.166;5.004;2023-02-18T02:59:32;41.50;;;14.57;;
71383;SDS011;67558;52.166;5.004;2023-02-18T03:10:47;34.28;;;13.32;;
71383;SDS011;67558;52.166;5.004;2023-02-18T03:16:25;35.95;;;13.98;;
71383;SDS011;67558;52.166;5.004;2023-02-18T03:19:01;39.45;;;13.38;;
71383;SDS011;67558;52.166;5.004;2023-02-18T03:24:36;30.48;;;12.82;;
71383;SDS011;67558;52.166;5.004;2023-02-18T03:29:51;24.73;;;9.40;;
71383;SDS011;67558;52.166;5.004;2023-02-18T03:32:21;25.85;;;11.10;;
71383;SDS011;67558;52.166;5.004;2023-02-18T03:34:54;19.75;;;8.70;;
71383;SDS011;67558;52.166;5.004;2023-02-18T03:37:24;12.38;;;7.15;;
71383;SDS011;67558;52.166;5.004;2023-02-18T03:39:51;16.08;;;7.80;;
71383;SDS011;67558;52.166;5.004;2023-02-18T03:42:24;15.38;;;6.88;;
71383;SDS011;67558;52.166;5.004;2023-02-18T03:44:51;13.18;;;6.10;;
71383;SDS011;67558;52.166;5.004;2023-02-18T03:47:16;12.23;;;6.38;;
71383;SDS011;67558;52.166;5.004;2023-02-18T03:49:42;12.25;;;5.90;;
71383;SDS011;67558;52.166;5.004;2023-02-18T03:52:07;10.10;;;5.45;;
71383;SDS011;67558;52.166;5.004;2023-02-18T03:54:33;7.57;;;4.53;;
71383;SDS011;67558;52.166;5.004;2023-02-18T03:56:58;9.77;;;5.03;;
71383;SDS011;67558;52.166;5.004;2023-02-18T03:59:23;11.35;;;4.75;;
71383;SDS011;67558;52.166;5.004;2023-02-18T04:01:48;8.60;;;4.90;;
71383;SDS011;67558;52.166;5.004;2023-02-18T04:04:14;8.15;;;4.00;;
71383;SDS011;67558;52.166;5.004;2023-02-18T04:06:39;6.45;;;4.03;;
71383;SDS011;67558;52.166;5.004;2023-02-18T04:09:04;9.40;;;4.95;;
71383;SDS011;67558;52.166;5.004;2023-02-18T04:11:33;3.80;;;3.42;;
71383;SDS011;67558;52.166;5.004;2023-02-18T04:14:03;8.00;;;5.32;;
71383;SDS011;67558;52.166;5.004;2023-02-18T04:16:28;8.60;;;5.13;;
71383;SDS011;67558;52.166;5.004;2023-02-18T04:18:54;6.40;;;4.10;;
71383;SDS011;67558;52.166;5.004;2023-02-18T04:21:19;6.80;;;4.68;;
71383;SDS011;67558;52.166;5.004;2023-02-18T04:23:45;8.30;;;5.47;;
71383;SDS011;67558;52.166;5.004;2023-02-18T04:26:10;9.20;;;5.88;;
71383;SDS011;67558;52.166;5.004;2023-02-18T04:28:35;10.95;;;5.88;;
71383;SDS011;67558;52.166;5.004;2023-02-18T04:31:01;6.65;;;4.70;;
71383;SDS011;67558;52.166;5.004;2023-02-18T04:33:26;11.48;;;5.50;;
71383;SDS011;67558;52.166;5.004;2023-02-18T04:35:51;3.15;;;2.80;;
71383;SDS011;67558;52.166;5.004;2023-02-18T04:38:17;10.60;;;5.45;;
71383;SDS011;67558;52.166;5.004;2023-02-18T04:40:42;9.80;;;6.57;;
71383;SDS011;67558;52.166;5.004;2023-02-18T04:43:07;9.57;;;4.57;;
71383;SDS011;67558;52.166;5.004;2023-02-18T04:45:32;8.98;;;5.22;;
71383;SDS011;67558;52.166;5.004;2023-02-18T04:47:58;11.18;;;7.32;;
71383;SDS011;67558;52.166;5.004;2023-02-18T04:50:23;9.65;;;6.63;;
71383;SDS011;67558;52.166;5.004;2023-02-18T04:52:49;8.73;;;6.30;;
71383;SDS011;67558;52.166;5.004;2023-02-18T04:55:14;10.70;;;6.95;;
71383;SDS011;67558;52.166;5.004;2023-02-18T04:57:39;6.95;;;6.18;;
71383;SDS011;67558;52.166;5.004;2023-02-18T05:00:05;6.85;;;5.32;;
71383;SDS011;67558;52.166;5.004;2023-02-18T05:02:34;6.25;;;4.72;;
71383;SDS011;67558;52.166;5.004;2023-02-18T05:04:59;11.73;;;6.78;;
71383;SDS011;67558;52.166;5.004;2023-02-18T05:07:25;10.45;;;7.55;;
71383;SDS011;67558;52.166;5.004;2023-02-18T05:09:50;11.82;;;7.35;;
71383;SDS011;67558;52.166;5.004;2023-02-18T05:12:15;9.38;;;7.07;;
71383;SDS011;67558;52.166;5.004;2023-02-18T05:14:41;10.73;;;5.72;;
71383;SDS011;67558;52.166;5.004;2023-02-18T05:17:06;8.88;;;5.80;;
71383;SDS011;67558;52.166;5.004;2023-02-18T05:19:32;6.50;;;5.28;;
71383;SDS011;67558;52.166;5.004;2023-02-18T05:21:57;11.70;;;7.57;;
71383;SDS011;67558;52.166;5.004;2023-02-18T05:24:23;13.98;;;7.60;;
71383;SDS011;67558;52.166;5.004;2023-02-18T05:26:48;6.55;;;4.93;;
71383;SDS011;67558;52.166;5.004;2023-02-18T05:29:13;13.73;;;7.15;;
71383;SDS011;67558;52.166;5.004;2023-02-18T05:31:39;11.07;;;5.78;;
71383;SDS011;67558;52.166;5.004;2023-02-18T05:34:04;12.35;;;8.00;;
71383;SDS011;67558;52.166;5.004;2023-02-18T05:36:30;13.85;;;7.88;;
71383;SDS011;67558;52.166;5.004;2023-02-18T05:38:55;7.82;;;5.32;;
71383;SDS011;67558;52.166;5.004;2023-02-18T05:41:20;11.95;;;7.18;;
71383;SDS011;67558;52.166;5.004;2023-02-18T05:43:46;13.73;;;8.13;;
71383;SDS011;67558;52.166;5.004;2023-02-18T05:46:30;14.05;;;7.70;;
71383;SDS011;67558;52.166;5.004;2023-02-18T05:48:55;9.60;;;6.55;;
71383;SDS011;67558;52.166;5.004;2023-02-18T05:51:21;11.10;;;6.43;;
71383;SDS011;67558;52.166;5.004;2023-02-18T05:53:46;14.57;;;6.68;;
71383;SDS011;67558;52.166;5.004;2023-02-18T05:56:11;15.18;;;5.97;;
71383;SDS011;67558;52.166;5.004;2023-02-18T05:58:37;14.30;;;8.38;;
71383;SDS011;67558;52.166;5.004;2023-02-18T06:01:02;13.43;;;8.13;;
71383;SDS011;67558;52.166;5.004;2023-02-18T06:03:28;10.00;;;5.85;;
71383;SDS011;67558;52.166;5.004;2023-02-18T06:05:53;10.73;;;6.80;;
71383;SDS011;67558;52.166;5.004;2023-02-18T06:08:18;9.10;;;5.93;;
71383;SDS011;67558;52.166;5.004;2023-02-18T06:10:47;12.07;;;8.00;;
71383;SDS011;67558;52.166;5.004;2023-02-18T06:13:12;17.67;;;7.95;;
71383;SDS011;67558;52.166;5.004;2023-02-18T06:15:38;14.32;;;6.68;;
71383;SDS011;67558;52.166;5.004;2023-02-18T06:18:04;8.07;;;5.50;;
71383;SDS011;67558;52.166;5.004;2023-02-18T06:20:31;13.07;;;7.30;;
71383;SDS011;67558;52.166;5.004;2023-02-18T06:22:56;11.07;;;5.53;;
71383;SDS011;67558;52.166;5.004;2023-02-18T06:25:22;11.55;;;5.70;;
71383;SDS011;67558;52.166;5.004;2023-02-18T06:27:47;10.30;;;7.15;;
71383;SDS011;67558;52.166;5.004;2023-02-18T06:30:12;10.70;;;6.57;;
71383;SDS011;67558;52.166;5.004;2023-02-18T06:32:38;10.18;;;6.65;;
71383;SDS011;67558;52.166;5.004;2023-02-18T06:35:03;14.68;;;7.95;;
71383;SDS011;67558;52.166;5.004;2023-02-18T06:37:29;9.30;;;5.32;;
71383;SDS011;67558;52.166;5.004;2023-02-18T06:39:54;12.50;;;7.70;;
71383;SDS011;67558;52.166;5.004;2023-02-18T06:42:19;11.55;;;8.23;;
71383;SDS011;67558;52.166;5.004;2023-02-18T06:44:45;3.95;;;3.53;;
71383;SDS011;67558;52.166;5.004;2023-02-18T06:47:10;5.25;;;3.95;;
71383;SDS011;67558;52.166;5.004;2023-02-18T06:49:35;11.75;;;6.22;;
71383;SDS011;67558;52.166;5.004;2023-02-18T06:52:04;15.00;;;7.97;;
71383;SDS011;67558;52.166;5.004;2023-02-18T06:54:30;7.75;;;6.05;;
71383;SDS011;67558;52.166;5.004;2023-02-18T06:56:56;15.77;;;8.98;;
71383;SDS011;67558;52.166;5.004;2023-02-18T06:59:22;14.32;;;6.53;;
71383;SDS011;67558;52.166;5.004;2023-02-18T07:01:47;12.30;;;6.63;;
71383;SDS011;67558;52.166;5.004;2023-02-18T07:04:13;8.05;;;4.00;;
71383;SDS011;67558;52.166;5.004;2023-02-18T07:06:38;14.35;;;7.20;;
71383;SDS011;67558;52.166;5.004;2023-02-18T07:09:04;9.93;;;6.85;;
71383;SDS011;67558;52.166;5.004;2023-02-18T07:11:30;14.18;;;7.35;;
71383;SDS011;67558;52.166;5.004;2023-02-18T07:13:55;8.38;;;3.83;;
71383;SDS011;67558;52.166;5.004;2023-02-18T07:16:21;11.63;;;5.80;;
71383;SDS011;67558;52.166;5.004;2023-02-18T07:18:46;15.77;;;7.10;;
71383;SDS011;67558;52.166;5.004;2023-02-18T07:21:11;11.90;;;6.32;;
71383;SDS011;67558;52.166;5.004;2023-02-18T07:23:37;8.50;;;5.85;;
71383;SDS011;67558;52.166;5.004;2023-02-18T07:26:06;12.13;;;6.40;;
71383;SDS011;67558;52.166;5.004;2023-02-18T07:28:33;17.83;;;6.03;;
71383;SDS011;67558;52.166;5.004;2023-02-18T07:30:59;5.80;;;4.65;;
71383;SDS011;67558;52.166;5.004;2023-02-18T07:33:25;7.45;;;3.28;;
71383;SDS011;67558;52.166;5.004;2023-02-18T07:35:53;14.70;;;5.47;;
71383;SDS011;67558;52.166;5.004;2023-02-18T07:38:21;14.68;;;4.88;;
71383;SDS011;67558;52.166;5.004;2023-02-18T07:40:47;11.25;;;4.80;;
71383;SDS011;67558;52.166;5.004;2023-02-18T07:43:13;8.90;;;4.28;;
71383;SDS011;67558;52.166;5.004;2023-02-18T07:45:38;4.97;;;3.47;;
71383;SDS011;67558;52.166;5.004;2023-02-18T07:48:03;5.25;;;3.10;;
71383;SDS011;67558;52.166;5.004;2023-02-18T07:50:29;2.30;;;2.17;;
71383;SDS011;67558;52.166;5.004;2023-02-18T07:52:59;8.10;;;3.53;;
71383;SDS011;67558;52.166;5.004;2023-02-18T07:55:25;8.65;;;2.90;;
71383;SDS011;67558;52.166;5.004;2023-02-18T07:58:10;5.95;;;2.42;;
71383;SDS011;67558;52.166;5.004;2023-02-18T08:00:36;8.80;;;3.10;;
71383;SDS011;67558;52.166;5.004;2023-02-18T08:03:01;6.80;;;2.72;;
71383;SDS011;67558;52.166;5.004;2023-02-18T08:05:26;4.53;;;2.17;;
71383;SDS011;67558;52.166;5.004;2023-02-18T08:07:52;8.15;;;3.08;;
71383;SDS011;67558;52.166;5.004;2023-02-18T08:10:17;10.98;;;2.38;;
71383;SDS011;67558;52.166;5.004;2023-02-18T08:12:43;1.58;;;1.48;;
71383;SDS011;67558;52.166;5.004;2023-02-18T08:15:08;5.43;;;2.58;;
71383;SDS011;67558;52.166;5.004;2023-02-18T08:17:33;5.57;;;2.80;;
71383;SDS011;67558;52.166;5.004;2023-02-18T08:19:59;5.05;;;3.10;;
71383;SDS011;67558;52.166;5.004;2023-02-18T08:22:24;11.88;;;2.97;;
71383;SDS011;67558;52.166;5.004;2023-02-18T08:24:50;4.22;;;3.15;;
71383;SDS011;67558;52.166;5.004;2023-02-18T08:27:17;7.88;;;2.83;;
71383;SDS011;67558;52.166;5.004;2023-02-18T08:29:43;7.25;;;2.67;;
71383;SDS011;67558;52.166;5.004;2023-02-18T08:32:08;3.08;;;2.78;;
71383;SDS011;67558;52.166;5.004;2023-02-18T08:34:33;8.48;;;3.08;;
71383;SDS011;67558;52.166;5.004;2023-02-18T08:37:00;9.68;;;2.47;;
71383;SDS011;67558;52.166;5.004;2023-02-18T08:39:26;3.95;;;2.15;;
71383;SDS011;67558;52.166;5.004;2023-02-18T08:41:51;3.42;;;2.50;;
71383;SDS011;67558;52.166;5.004;2023-02-18T08:44:16;2.17;;;1.83;;
71383;SDS011;67558;52.166;5.004;2023-02-18T08:46:42;7.57;;;2.63;;
71383;SDS011;67558;52.166;5.004;2023-02-18T08:49:07;7.85;;;2.80;;
71383;SDS011;67558;52.166;5.004;2023-02-18T08:51:33;5.68;;;2.85;;
71383;SDS011;67558;52.166;5.004;2023-02-18T08:53:58;7.95;;;3.30;;
71383;SDS011;67558;52.166;5.004;2023-02-18T08:56:24;7.75;;;2.22;;
71383;SDS011;67558;52.166;5.004;2023-02-18T08:58:49;7.70;;;3.65;;
71383;SDS011;67558;52.166;5.004;2023-02-18T09:01:15;4.03;;;2.45;;
71383;SDS011;67558;52.166;5.004;2023-02-18T09:03:40;6.07;;;3.17;;
71383;SDS011;67558;52.166;5.004;2023-02-18T09:06:06;3.72;;;2.70;;
71383;SDS011;67558;52.166;5.004;2023-02-18T09:08:32;5.95;;;2.25;;
71383;SDS011;67558;52.166;5.004;2023-02-18T09:10:58;4.13;;;2.80;;
71383;SDS011;67558;52.166;5.004;2023-02-18T09:13:26;9.10;;;2.90;;
71383;SDS011;67558;52.166;5.004;2023-02-18T09:16:10;4.43;;;3.05;;
71383;SDS011;67558;52.166;5.004;2023-02-18T09:18:37;4.30;;;2.08;;
71383;SDS011;67558;52.166;5.004;2023-02-18T09:21:03;3.90;;;2.72;;
71383;SDS011;67558;52.166;5.004;2023-02-18T09:23:31;16.23;;;3.03;;
71383;SDS011;67558;52.166;5.004;2023-02-18T09:25:57;16.10;;;3.45;;
71383;SDS011;67558;52.166;5.004;2023-02-18T09:28:23;5.47;;;1.45;;
71383;SDS011;67558;52.166;5.004;2023-02-18T09:30:49;6.53;;;3.03;;
71383;SDS011;67558;52.166;5.004;2023-02-18T09:33:15;8.25;;;3.13;;
71383;SDS011;67558;52.166;5.004;2023-02-18T09:35:41;10.85;;;3.83;;
71383;SDS011;67558;52.166;5.004;2023-02-18T09:38:12;7.07;;;2.60;;
71383;SDS011;67558;52.166;5.004;2023-02-18T09:40:44;6.20;;;2.70;;
71383;SDS011;67558;52.166;5.004;2023-02-18T09:43:28;8.23;;;3.42;;
71383;SDS011;67558;52.166;5.004;2023-02-18T09:45:58;5.57;;;1.67;;
71383;SDS011;67558;52.166;5.004;2023-02-18T09:48:26;10.57;;;2.90;;
71383;SDS011;67558;52.166;5.004;2023-02-18T09:50:55;6.95;;;2.80;;
71383;SDS011;67558;52.166;5.004;2023-02-18T09:53:21;7.07;;;3.88;;
71383;SDS011;67558;52.166;5.004;2023-02-18T09:55:48;9.82;;;3.85;;
71383;SDS011;67558;52.166;5.004;2023-02-18T09:58:16;4.20;;;2.97;;
71383;SDS011;67558;52.166;5.004;2023-02-18T10:00:46;11.00;;;2.63;;
71383;SDS011;67558;52.166;5.004;2023-02-18T10:03:19;6.00;;;3.03;;
71383;SDS011;67558;52.166;5.004;2023-02-18T10:08:44;7.32;;;3.65;;
71383;SDS011;67558;52.166;5.004;2023-02-18T10:11:13;4.55;;;2.95;;
71383;SDS011;67558;52.166;5.004;2023-02-18T10:13:41;4.53;;;2.65;;
71383;SDS011;67558;52.166;5.004;2023-02-18T10:16:07;5.63;;;3.60;;
71383;SDS011;67558;52.166;5.004;2023-02-18T10:18:42;2.53;;;2.35;;
71383;SDS011;67558;52.166;5.004;2023-02-18T10:21:29;6.22;;;3.55;;
71383;SDS011;67558;52.166;5.004;2023-02-18T10:24:06;9.80;;;4.03;;
71383;SDS011;67558;52.166;5.004;2023-02-18T10:26:43;6.28;;;3.28;;
71383;SDS011;67558;52.166;5.004;2023-02-18T10:29:19;3.40;;;3.03;;
71383;SDS011;67558;52.166;5.004;2023-02-18T10:31:48;11.52;;;3.33;;
71383;SDS011;67558;52.166;5.004;2023-02-18T10:34:23;2.78;;;2.30;;
71383;SDS011;67558;52.166;5.004;2023-02-18T10:39:58;5.68;;;3.17;;
71383;SDS011;67558;52.166;5.004;2023-02-18T10:42:38;7.53;;;3.13;;
71383;SDS011;67558;52.166;5.004;2023-02-18T10:47:56;9.65;;;3.65;;
71383;SDS011;67558;52.166;5.004;2023-02-18T10:50:30;4.20;;;3.22;;
71383;SDS011;67558;52.166;5.004;2023-02-18T10:53:02;6.38;;;4.10;;
71383;SDS011;67558;52.166;5.004;2023-02-18T10:55:39;16.63;;;3.83;;
71383;SDS011;67558;52.166;5.004;2023-02-18T10:58:52;5.90;;;3.08;;
71383;SDS011;67558;52.166;5.004;2023-02-18T11:01:01;7.18;;;3.80;;
71383;SDS011;67558;52.166;5.004;2023-02-18T11:03:37;4.28;;;3.03;;
71383;SDS011;67558;52.166;5.004;2023-02-18T11:06:22;3.15;;;2.70;;
71383;SDS011;67558;52.166;5.004;2023-02-18T11:08:54;3.65;;;2.42;;
71383;SDS011;67558;52.166;5.004;2023-02-18T11:11:28;3.83;;;3.42;;
71383;SDS011;67558;52.166;5.004;2023-02-18T11:13:57;6.03;;;3.70;;
71383;SDS011;67558;52.166;5.004;2023-02-18T11:16:43;8.77;;;2.95;;
71383;SDS011;67558;52.166;5.004;2023-02-18T11:19:32;3.63;;;2.90;;
71383;SDS011;67558;52.166;5.004;2023-02-18T11:22:14;10.38;;;3.58;;
71383;SDS011;67558;52.166;5.004;2023-02-18T11:24:47;5.35;;;3.28;;
71383;SDS011;67558;52.166;5.004;2023-02-18T11:27:19;4.15;;;2.60;;
71383;SDS011;67558;52.166;5.004;2023-02-18T11:30:00;4.13;;;3.40;;
71383;SDS011;67558;52.166;5.004;2023-02-18T11:32:28;4.90;;;3.35;;
71383;SDS011;67558;52.166;5.004;2023-02-18T11:34:58;6.07;;;3.60;;
71383;SDS011;67558;52.166;5.004;2023-02-18T11:37:23;3.45;;;3.15;;
71383;SDS011;67558;52.166;5.004;2023-02-18T11:39:50;5.30;;;2.92;;
71383;SDS011;67558;52.166;5.004;2023-02-18T11:42:19;6.63;;;3.17;;
71383;SDS011;67558;52.166;5.004;2023-02-18T11:44:48;4.40;;;2.67;;
71383;SDS011;67558;52.166;5.004;2023-02-18T11:47:23;5.75;;;3.17;;
71383;SDS011;67558;52.166;5.004;2023-02-18T11:52:34;6.30;;;3.10;;
71383;SDS011;67558;52.166;5.004;2023-02-18T11:55:04;3.70;;;2.70;;
71383;SDS011;67558;52.166;5.004;2023-02-18T11:57:42;7.50;;;2.65;;
71383;SDS011;67558;52.166;5.004;2023-02-18T12:00:20;6.20;;;3.30;;
71383;SDS011;67558;52.166;5.004;2023-02-18T12:02:45;9.75;;;3.20;;
71383;SDS011;67558;52.166;5.004;2023-02-18T12:05:13;9.30;;;4.45;;
71383;SDS011;67558;52.166;5.004;2023-02-18T12:07:44;3.35;;;3.05;;
71383;SDS011;67558;52.166;5.004;2023-02-18T12:10:14;7.97;;;3.60;;
71383;SDS011;67558;52.166;5.004;2023-02-18T12:12:49;5.00;;;3.55;;
71383;SDS011;67558;52.166;5.004;2023-02-18T12:15:48;6.45;;;3.65;;
71383;SDS011;67558;52.166;5.004;2023-02-18T12:18:37;5.55;;;3.00;;
71383;SDS011;67558;52.166;5.004;2023-02-18T12:21:29;10.70;;;3.67;;
71383;SDS011;67558;52.166;5.004;2023-02-18T12:24:10;7.63;;;3.65;;
71383;SDS011;67558;52.166;5.004;2023-02-18T12:26:43;7.93;;;3.70;;
71383;SDS011;67558;52.166;5.004;2023-02-18T12:29:26;5.03;;;3.10;;
71383;SDS011;67558;52.166;5.004;2023-02-18T12:32:09;5.57;;;3.20;;
71383;SDS011;67558;52.166;5.004;2023-02-18T12:37:56;4.03;;;3.75;;
71383;SDS011;67558;52.166;5.004;2023-02-18T12:45:55;3.08;;;2.72;;
71383;SDS011;67558;52.166;5.004;2023-02-18T12:48:46;3.72;;;3.50;;
71383;SDS011;67558;52.166;5.004;2023-02-18T12:59:34;7.22;;;3.22;;
71383;SDS011;67558;52.166;5.004;2023-02-18T13:02:22;5.60;;;3.55;;
71383;SDS011;67558;52.166;5.004;2023-02-18T13:18:34;3.22;;;3.03;;
71383;SDS011;67558;52.166;5.004;2023-02-18T13:21:06;5.05;;;3.60;;
71383;SDS011;67558;52.166;5.004;2023-02-18T13:23:37;3.35;;;2.97;;
71383;SDS011;67558;52.166;5.004;2023-02-18T13:26:10;4.55;;;3.08;;
71383;SDS011;67558;52.166;5.004;2023-02-18T13:28:47;4.93;;;2.75;;
71383;SDS011;67558;52.166;5.004;2023-02-18T13:34:38;3.55;;;2.95;;
71383;SDS011;67558;52.166;5.004;2023-02-18T13:40:00;3.65;;;3.05;;
71383;SDS011;67558;52.166;5.004;2023-02-18T13:50:13;2.67;;;2.47;;
71383;SDS011;67558;52.166;5.004;2023-02-18T13:52:38;2.33;;;2.08;;
71383;SDS011;67558;52.166;5.004;2023-02-18T13:55:04;5.70;;;3.60;;
71383;SDS011;67558;52.166;5.004;2023-02-18T13:57:30;5.82;;;2.90;;
71383;SDS011;67558;52.166;5.004;2023-02-18T14:00:02;5.70;;;3.40;;
71383;SDS011;67558;52.166;5.004;2023-02-18T14:02:57;5.65;;;3.13;;
71383;SDS011;67558;52.166;5.004;2023-02-18T14:05:24;3.50;;;3.20;;
71383;SDS011;67558;52.166;5.004;2023-02-18T14:08:12;4.22;;;3.80;;
71383;SDS011;67558;52.166;5.004;2023-02-18T14:16:23;4.82;;;3.40;;
71383;SDS011;67558;52.166;5.004;2023-02-18T14:18:58;4.15;;;2.65;;
71383;SDS011;67558;52.166;5.004;2023-02-18T14:21:38;3.50;;;3.22;;
71383;SDS011;67558;52.166;5.004;2023-02-18T14:24:08;7.53;;;3.53;;
71383;SDS011;67558;52.166;5.004;2023-02-18T14:26:36;4.35;;;3.55;;
71383;SDS011;67558;52.166;5.004;2023-02-18T14:29:12;6.95;;;3.47;;
71383;SDS011;67558;52.166;5.004;2023-02-18T14:31:51;4.60;;;3.05;;
71383;SDS011;67558;52.166;5.004;2023-02-18T14:36:54;7.28;;;2.88;;
71383;SDS011;67558;52.166;5.004;2023-02-18T14:39:33;9.52;;;3.70;;
71383;SDS011;67558;52.166;5.004;2023-02-18T14:45:10;2.97;;;2.78;;
71383;SDS011;67558;52.166;5.004;2023-02-18T14:47:55;3.83;;;3.40;;
71383;SDS011;67558;52.166;5.004;2023-02-18T14:50:43;2.70;;;2.50;;
71383;SDS011;67558;52.166;5.004;2023-02-18T14:53:13;7.10;;;2.95;;
71383;SDS011;67558;52.166;5.004;2023-02-18T14:55:43;5.95;;;3.40;;
71383;SDS011;67558;52.166;5.004;2023-02-18T14:58:33;5.55;;;3.13;;
71383;SDS011;67558;52.166;5.004;2023-02-18T15:01:06;4.70;;;3.35;;
71383;SDS011;67558;52.166;5.004;2023-02-18T15:03:38;3.15;;;2.33;;
71383;SDS011;67558;52.166;5.004;2023-02-18T15:06:20;3.38;;;2.28;;
71383;SDS011;67558;52.166;5.004;2023-02-18T15:08:50;3.25;;;3.05;;
71383;SDS011;67558;52.166;5.004;2023-02-18T15:11:15;6.60;;;3.30;;
71383;SDS011;67558;52.166;5.004;2023-02-18T15:13:43;5.55;;;3.33;;
71383;SDS011;67558;52.166;5.004;2023-02-18T15:16:29;5.43;;;3.22;;
71383;SDS011;67558;52.166;5.004;2023-02-18T15:19:06;5.90;;;3.28;;
71383;SDS011;67558;52.166;5.004;2023-02-18T15:21:39;5.68;;;3.38;;
71383;SDS011;67558;52.166;5.004;2023-02-18T15:24:53;5.43;;;2.90;;
71383;SDS011;67558;52.166;5.004;2023-02-18T15:26:58;3.78;;;2.72;;
71383;SDS011;67558;52.166;5.004;2023-02-18T15:29:27;7.32;;;3.45;;
71383;SDS011;67558;52.166;5.004;2023-02-18T15:31:55;7.68;;;4.30;;
71383;SDS011;67558;52.166;5.004;2023-02-18T15:34:28;3.70;;;3.40;;
71383;SDS011;67558;52.166;5.004;2023-02-18T15:37:00;6.65;;;2.40;;
71383;SDS011;67558;52.166;5.004;2023-02-18T15:39:26;8.85;;;2.90;;
71383;SDS011;67558;52.166;5.004;2023-02-18T15:41:53;8.27;;;3.53;;
71383;SDS011;67558;52.166;5.004;2023-02-18T15:44:21;7.28;;;3.58;;
71383;SDS011;67558;52.166;5.004;2023-02-18T15:46:49;7.22;;;3.80;;
71383;SDS011;67558;52.166;5.004;2023-02-18T15:49:17;7.15;;;3.95;;
71383;SDS011;67558;52.166;5.004;2023-02-18T15:51:45;7.00;;;3.53;;
71383;SDS011;67558;52.166;5.004;2023-02-18T15:54:14;9.52;;;3.58;;
71383;SDS011;67558;52.166;5.004;2023-02-18T15:56:43;10.15;;;3.63;;
71383;SDS011;67558;52.166;5.004;2023-02-18T15:59:31;8.00;;;3.45;;
71383;SDS011;67558;52.166;5.004;2023-02-18T16:02:07;6.82;;;3.85;;
71383;SDS011;67558;52.166;5.004;2023-02-18T16:04:39;8.80;;;4.30;;
71383;SDS011;67558;52.166;5.004;2023-02-18T16:07:26;4.80;;;3.35;;
71383;SDS011;67558;52.166;5.004;2023-02-18T16:12:38;3.58;;;3.25;;
71383;SDS011;67558;52.166;5.004;2023-02-18T16:15:04;9.73;;;3.17;;
71383;SDS011;67558;52.166;5.004;2023-02-18T16:17:30;3.92;;;2.45;;
71383;SDS011;67558;52.166;5.004;2023-02-18T16:20:00;5.85;;;3.67;;
71383;SDS011;67558;52.166;5.004;2023-02-18T16:22:44;5.20;;;4.38;;
71383;SDS011;67558;52.166;5.004;2023-02-18T16:27:47;6.55;;;2.72;;
71383;SDS011;67558;52.166;5.004;2023-02-18T16:32:47;9.68;;;3.95;;
71383;SDS011;67558;52.166;5.004;2023-02-18T16:35:12;7.70;;;3.88;;
71383;SDS011;67558;52.166;5.004;2023-02-18T16:37:38;5.97;;;2.83;;
71383;SDS011;67558;52.166;5.004;2023-02-18T16:43:12;7.88;;;2.75;;
71383;SDS011;67558;52.166;5.004;2023-02-18T16:45:42;6.47;;;2.60;;
71383;SDS011;67558;52.166;5.004;2023-02-18T16:48:13;7.47;;;2.78;;
71383;SDS011;67558;52.166;5.004;2023-02-18T16:50:43;10.05;;;4.85;;